Aviation Digital Data Service (ADDS)

Output produced by METARs form (2053 UTC 20 August 2019)
found at http://www.aviationweather.gov/metar/data/
 
Forecast for: HEBL (ABU SIMBEL (RUIN, EG)
Text: TAF HEBL 201700Z 2018/2124 04010KT CAVOK
Forecast period: 1800 UTC 20 August 2019 to 0000 UTC 22 August 2019
Forecast type: FROM: standard forecast or significant change
Winds: from the NE (40 degrees) at 12 MPH (10 knots; 5.1 m/s)
Visibility: 6 or more miles 10+ km)
Ceiling: unknown
Clouds: missing
Weather: NSW  (no significant weather)